Flight Track Log - Related Links

Times and Time Zones

All times are in EDT time to prevent confusion due to time zone crossing. See the N521LL flight status page for this flight to view local times or setup timezone preferences in your user account.

Time Position Orientation Groundspeed Altitude Reporting Facility
EDT Latitude Longitude Course Direction KTS MPH feet Rate Location/Type
Fri 12:28:40 PM 33.6383 -101.8319 144° Southeast 172 198 3,900  Level Fort Worth Center
Fri 12:29:47 PM 33.5694 -101.8283 177° South 235 270 5,800 2,224 Climbing Fort Worth Center
Fri 12:31:30 PM 33.4606 -101.8453 187° South 247 284 10,200 2,834 Climbing Fort Worth Center
Fri 12:32:30 PM 33.3964 -101.8844 207° Southwest 242 278 13,500 3,150 Climbing Fort Worth Center
Fri 12:33:30 PM 33.3489 -101.9267 217° Southwest 242 278 16,500 2,950 Climbing Fort Worth Center
Fri 12:34:00 PM 33.1898 -101.4134 144° Southeast  Level Estimated
Fri 12:34:30 PM 33.2892 -101.9658 209° Southwest 237 273 19,400  Level Fort Worth Center
Fri 12:35:30 PM 33.2461 -102.0033 216° Southwest 231 266 22,000 2,150 Climbing Fort Worth Center
Fri 12:36:30 PM 33.1922 -102.0478 215° Southwest 219 252 23,700 992 Climbing Fort Worth Center
Fri 12:37:31 PM 33.1328 -102.0744 201° Southwest 244 281 24,000 950 Climbing Fort Worth Center
Fri 12:38:30 PM 33.0386 -102.0844 185° South 296 341 25,600 1,765 Climbing Fort Worth Center
Fri 12:39:30 PM 32.9631 -102.0928 185° South 311 358 27,500 1,700 Climbing Fort Worth Center
Fri 12:40:30 PM 32.8719 -102.0706 168° South 306 352 29,000 1,550 Climbing Fort Worth Center
Fri 12:41:30 PM 32.7958 -101.9900 138° Southeast 312 359 30,600 1,300 Climbing Fort Worth Center
Fri 12:42:30 PM 32.7172 -101.9119 140° Southeast 345 397 31,600 1,300 Climbing Fort Worth Center
Fri 12:43:30 PM 32.6406 -101.8317 139° Southeast 359 413 33,200 1,400 Climbing Fort Worth Center
Fri 12:44:30 PM 32.5642 -101.7492 138° Southeast 366 421 34,400 900 Climbing Fort Worth Center
Fri 12:45:30 PM 32.4836 -101.6689 140° Southeast 371 427 35,000 300 Climbing Fort Worth Center
Fri 12:46:30 PM 32.4008 -101.5814 138° Southeast 383 441 35,000  Level Fort Worth Center
Fri 12:47:31 PM 32.3100 -101.4911 140° Southeast 406 467 35,000  Level Fort Worth Center
Fri 12:48:30 PM 32.2231 -101.3964 137° Southeast 423 487 35,000  Level Fort Worth Center
Fri 12:49:30 PM 32.1322 -101.2992 138° Southeast 429 494 35,000  Level Fort Worth Center
Fri 12:50:30 PM 32.0392 -101.2044 139° Southeast 440 506 35,000  Level Fort Worth Center
Fri 12:51:30 PM 31.9439 -101.1075 139° Southeast 446 513 35,000  Level Fort Worth Center
Fri 12:52:30 PM 31.8569 -101.0161 138° Southeast 439 505 35,000  Level Fort Worth Center
Fri 12:53:30 PM 31.7553 -100.9144 140° Southeast 444 511 35,000  Level Fort Worth Center
Fri 12:55:49 PM 31.5475 -100.7050 139° Southeast 453 521 35,000  Level Houston Center
Fri 12:56:51 PM 31.4519 -100.6122 140° Southeast 448 516 35,000  Level Houston Center
Fri 12:57:53 PM 31.3583 -100.5136 138° Southeast 450 518 35,000  Level Houston Center
Fri 12:58:55 PM 31.2436 -100.4003 140° Southeast 450 518 35,000  Level Houston Center
Fri 12:59:57 PM 31.1481 -100.3047 139° Southeast 451 519 35,000  Level Houston Center
Fri 01:00:59 PM 31.0525 -100.2094 139° Southeast 452 520 35,000  Level Houston Center
Fri 01:02:01 PM 30.9550 -100.1142 140° Southeast 454 522 35,000  Level Houston Center
Fri 01:03:03 PM 30.8544 -100.0258 143° Southeast 452 520 35,000  Level Houston Center
Fri 01:04:05 PM 30.7519 -99.9458 146° Southeast 445 512 35,000  Level Houston Center
Fri 01:05:08 PM 30.6303 -99.8442 144° Southeast 446 513 35,000  Level Houston Center
Fri 01:06:10 PM 30.5286 -99.7614 145° Southeast 447 514 35,000  Level Houston Center
Fri 01:07:12 PM 30.4261 -99.6769 145° Southeast 449 517 35,000  Level Houston Center
Fri 01:08:14 PM 30.3233 -99.5928 145° Southeast 450 518 35,000  Level Houston Center
Fri 01:09:16 PM 30.2203 -99.5111 146° Southeast 449 517 35,000  Level Houston Center
Fri 01:10:18 PM 30.1181 -99.4267 144° Southeast 449 517 35,000  Level Houston Center
Fri 01:11:20 PM 30.0156 -99.3464 146° Southeast 441 507 35,000  Level Houston Center
Fri 01:12:23 PM 29.8942 -99.2461 144° Southeast 445 512 35,000  Level Houston Center
Fri 01:13:25 PM 29.7922 -99.1653 145° Southeast 446 513 35,000 48 Level Houston Center
Fri 01:14:27 PM 29.6858 -99.0789 145° Southeast 445 512 35,100 48 Climbing Houston Center
Fri 01:15:29 PM 29.5761 -98.9919 145° Southeast 447 514 35,100 -194 Level Houston Center
Fri 01:16:31 PM 29.4747 -98.9125 146° Southeast 442 509 34,700 -823 Descending Houston Center
Fri 01:17:33 PM 29.3692 -98.8319 146° Southeast 428 493 33,400 -1,392 Descending Houston Center
Fri 01:18:36 PM 29.2597 -98.8250 177° South 397 457 31,800 -1,680 Descending Houston Center
Fri 01:19:38 PM 29.1408 -98.8300 182° South 396 456 29,900 -1,790 Descending Houston Center
Fri 01:20:40 PM 29.0322 -98.8361 183° South 391 450 28,100 -1,790 Descending Houston Center
Fri 01:21:42 PM 28.9147 -98.8342 179° South 394 453 26,200 -1,839 Descending Houston Center
Fri 01:22:44 PM 28.8281 -98.7519 140° Southeast 407 468 24,300 -1,839 Descending Houston Center
Fri 01:23:46 PM 28.7550 -98.6419 127° Southeast 405 466 22,400 -1,694 Descending Houston Center
Fri 01:24:48 PM 28.6903 -98.5522 129° Southeast 410 472 20,800 -1,839 Descending Houston Center
Fri 01:25:50 PM 28.6231 -98.4519 127° Southeast 400 460 18,600 -2,516 Descending Houston Center
Fri 01:26:52 PM 28.5542 -98.3450 126° Southeast 363 418 15,600 -2,640 Descending Houston Center
Fri 01:27:55 PM 28.4981 -98.2550 125° Southeast 353 406 13,100 -2,400 Descending Houston Center
Fri 01:28:57 PM 28.4411 -98.1686 127° Southeast 339 390 10,600 -2,293 Descending Houston Center
Fri 01:29:58 PM 28.3889 -98.0861 126° Southeast 314 361 8,400 -2,041 Descending Houston Center
Fri 01:30:34 PM 28.3589 -98.0403 127° Southeast 283 326 7,300 -1,619 Descending Houston Center
Fri 01:31:01 PM 28.3439 -98.0156 125° Southeast 306 352 6,700 -1,672 Descending Houston Center
Fri 01:31:35 PM 28.3183 -97.9742 125° Southeast 254 292 5,600 -1,645 Descending Houston Center
Fri 01:32:03 PM 28.2961 -97.9392 126° Southeast 267 307 5,000 -655 Descending Houston Center
Fri 01:32:30 PM 28.2872 -97.9167 114° Southeast 216 249 5,000  Level Houston Center
Fri 01:33:05 PM 28.2728 -97.8781 113° Southeast 233 268 5,000  Level Houston Center
Fri 01:33:37 PM 28.2628 -97.8464 110° East 205 236 5,000  Level Houston Center
Fri 01:34:07 PM 28.2514 -97.8208 117° Southeast 208 239 5,000  Level Houston Center
Fri 01:34:37 PM 28.2358 -97.7906 120° Southeast 207 238 5,000  Level Houston Center
Fri 01:35:10 PM 28.2267 -97.7617 110° East 206 237 5,000  Level Houston Center
Fri 01:35:38 PM 28.2122 -97.7247 114° Southeast 213 245 5,000  Level Houston Center
Fri 01:36:12 PM 28.2031 -97.7006 113° Southeast 209 241 5,000 -245 Level Houston Center
Fri 01:36:27 PM 28.1925 -97.6800 120° Southeast 207 238 4,800 -774 Descending Houston Center
Fri 01:37:14 PM 28.1792 -97.6417 112° Southeast 208 239 4,200 -896 Descending Houston Center
Fri 01:37:34 PM 28.1664 -97.6122 116° Southeast 206 237 3,800 -774 Descending Houston Center
Fri 01:38:16 PM 28.1525 -97.5744 113° Southeast 201 231 3,400 -462 Descending Houston Center
Fri 01:39:18 PM 28.1311 -97.5211 114° Southeast 195 224 3,000 -304 Descending Houston Center
Fri 01:39:35 PM 28.1231 -97.5019 115° Southeast 186 214 3,000  Level Houston Center
Fri 01:40:20 PM 28.1103 -97.4697 114° Southeast 190 219 3,000  Level Houston Center
Fri 01:41:23 PM 28.0911 -97.4228 115° Southeast 181 208 3,000  Level Houston Center
Fri 01:42:25 PM 28.0711 -97.3725 114° Southeast 174 200 3,000 -533 Level Houston Center
Fri 01:43:38 PM 28.0411 -97.3306 129° Southeast 130 150 1,800 -537 Descending Houston Center
Fri 01:44:39 PM 28.0158 -97.3103 145° Southeast 100 115 1,800  Level Houston Center
Fri 01:45:34 PM 27.9925 -97.2900 142° Southeast 113 130 1,800 -298 Level Houston Center
Fri 01:46:40 PM 27.9689 -97.2647 137° Southeast 104 120 1,200 -545 Descending Houston Center

Login

Don't have an account? Register now (free) for customized features, flight alerts, and more!